Time;durP1;ratioP1;P1;durP2;ratioP2;P2;SDS_P1;SDS_P2;PMS_P1;PMS_P2;Temp;Humidity;BMP_temperature;BMP_pressure;BME280_temperature;BME280_humidity;BME280_pressure;Samples;Min_cycle;Max_cycle;Signal;HPM_P1;HPM_P2
2023/05/05 00:01:04;;;;;;;12.10;10.40;;;;;;;16.90;69.81;101346.84;5026052;28;20036;-83
2023/05/05 00:03:29;;;;;;;11.25;9.95;;;;;;;16.88;68.73;101346.16;5040770;28;20040;-82
2023/05/05 00:05:54;;;;;;;11.63;9.95;;;;;;;16.83;69.51;101350.09;5033149;28;20034;-82
2023/05/05 00:08:20;;;;;;;13.40;10.15;;;;;;;16.81;69.39;101356.59;5030942;28;20557;-83
2023/05/05 00:10:50;;;;;;;13.77;10.73;;;;;;;16.77;69.84;101364.09;5027346;28;20049;-83
2023/05/05 00:13:17;;;;;;;14.90;10.88;;;;;;;16.66;71.22;101348.16;5032741;28;20091;-83
2023/05/05 00:15:44;;;;;;;13.85;10.45;;;;;;;16.63;72.06;101360.03;5035005;28;20034;-83
2023/05/05 00:18:10;;;;;;;12.35;10.27;;;;;;;16.61;72.17;101361.16;5039314;28;20025;-83
2023/05/05 00:20:35;;;;;;;13.27;10.93;;;;;;;16.61;72.75;101367.38;5036632;28;20025;-82
2023/05/05 00:23:01;;;;;;;14.60;11.18;;;;;;;16.58;73.16;101370.34;5038235;28;20543;-82
2023/05/05 00:25:28;;;;;;;14.05;10.98;;;;;;;16.54;73.66;101365.44;5031286;28;20034;-82
2023/05/05 00:27:53;;;;;;;12.77;10.88;;;;;;;16.46;73.86;101361.63;5043390;28;20025;-83
2023/05/05 00:30:18;;;;;;;14.15;11.80;;;;;;;16.43;74.78;101361.06;5040401;28;20022;-83
2023/05/05 00:32:47;;;;;;;13.23;11.93;;;;;;;16.40;74.86;101355.97;5045663;28;20036;-83
2023/05/05 00:35:12;;;;;;;13.68;11.73;;;;;;;16.38;75.80;101360.63;5047226;28;20018;-83
2023/05/05 00:37:38;;;;;;;14.82;11.63;;;;;;;16.33;75.76;101352.19;5045451;28;20037;-83
2023/05/05 00:40:04;;;;;;;14.35;12.40;;;;;;;16.34;76.17;101353.88;5047562;28;20029;-83
2023/05/05 00:42:40;;;;;;;15.07;12.27;;;;;;;16.31;75.33;101364.91;5048236;28;20337;-83
2023/05/05 00:45:06;;;;;;;14.73;12.63;;;;;;;16.26;76.07;101363.47;5048837;28;20039;-83
2023/05/05 00:47:31;;;;;;;15.38;12.65;;;;;;;16.23;76.64;101376.31;5048187;28;20104;-83
2023/05/05 00:49:57;;;;;;;15.98;12.70;;;;;;;16.14;76.64;101355.72;5045672;28;20013;-83
2023/05/05 00:52:22;;;;;;;18.17;13.07;;;;;;;16.14;77.08;101369.09;5036841;28;20395;-82
2023/05/05 00:54:48;;;;;;;14.52;13.02;;;;;;;16.17;77.28;101372.38;5039197;28;20072;-82
2023/05/05 00:57:13;;;;;;;15.23;13.32;;;;;;;16.16;77.50;101377.88;5030849;28;20030;-82
2023/05/05 00:59:39;;;;;;;17.27;13.65;;;;;;;16.13;77.88;101379.00;5037112;28;20022;-82
2023/05/05 01:02:05;;;;;;;16.63;14.02;;;;;;;16.05;78.61;101360.97;5040104;28;20058;-82
2023/05/05 01:04:30;;;;;;;14.75;12.80;;;;;;;16.01;78.46;101364.88;5026831;28;20025;-82
2023/05/05 01:07:15;;;;;;;16.80;13.13;;;;;;;16.01;77.89;101367.56;5037508;28;20049;-83
2023/05/05 01:09:49;;;;;;;15.35;13.00;;;;;;;15.99;78.90;101374.91;5028913;28;20025;-83
2023/05/05 01:12:38;;;;;;;16.80;13.63;;;;;;;15.98;77.63;101377.72;5038254;28;20025;-83
2023/05/05 01:15:21;;;;;;;14.65;13.10;;;;;;;15.92;78.13;101373.78;5038810;28;20025;-83
2023/05/05 01:17:58;;;;;;;15.60;13.45;;;;;;;15.83;77.44;101375.44;5032565;28;20104;-83
2023/05/05 01:20:42;;;;;;;15.45;13.45;;;;;;;15.89;77.87;101384.78;5035920;28;20025;-83
2023/05/05 01:23:12;;;;;;;15.35;13.00;;;;;;;15.82;80.47;101371.09;5039696;28;20083;-83
2023/05/05 01:25:54;;;;;;;15.88;14.15;;;;;;;15.85;79.52;101364.59;5031658;28;20026;-83
2023/05/05 01:28:49;;;;;;;15.45;12.63;;;;;;;15.80;79.14;101358.81;5039184;28;20029;-82
2023/05/05 01:32:03;;;;;;;15.95;13.75;;;;;;;15.75;78.63;101337.75;5039044;28;20040;-82
2023/05/05 01:34:40;;;;;;;17.23;14.00;;;;;;;15.78;78.65;101372.34;5033142;28;20041;-83
2023/05/05 01:37:21;;;;;;;15.73;14.13;;;;;;;15.79;79.24;101379.38;5032992;28;20033;-82
2023/05/05 01:39:51;;;;;;;16.55;13.35;;;;;;;15.73;80.67;101370.03;5035389;28;20048;-83
2023/05/05 01:42:18;;;;;;;18.85;14.93;;;;;;;15.68;80.96;101372.28;5029047;28;20116;-84
2023/05/05 01:44:46;;;;;;;18.05;14.18;;;;;;;15.69;81.06;101360.59;5039098;28;20086;-83
2023/05/05 01:47:15;;;;;;;19.17;14.20;;;;;;;15.67;80.36;101367.06;5036717;28;20028;-83
2023/05/05 01:49:45;;;;;;;16.30;14.60;;;;;;;15.64;80.54;101367.38;5038089;28;20025;-83
2023/05/05 01:52:13;;;;;;;17.27;13.98;;;;;;;15.59;80.93;101367.75;5038389;28;20033;-84
2023/05/05 01:54:40;;;;;;;17.75;14.05;;;;;;;15.58;80.61;101367.91;5036112;28;20485;-82
2023/05/05 01:57:07;;;;;;;17.15;15.35;;;;;;;15.53;81.67;101377.19;5039322;28;20160;-82
2023/05/05 01:59:33;;;;;;;17.27;14.70;;;;;;;15.50;81.69;101373.94;5034957;28;20018;-81
2023/05/05 02:02:01;;;;;;;16.80;14.50;;;;;;;15.45;81.34;101373.50;5039571;28;20037;-82
2023/05/05 02:04:28;;;;;;;17.40;14.43;;;;;;;15.47;81.72;101387.59;5043815;28;20487;-83
2023/05/05 02:06:55;;;;;;;18.83;15.52;;;;;;;15.38;82.28;101380.38;5046856;28;20065;-82
2023/05/05 02:09:24;;;;;;;15.65;14.00;;;;;;;15.34;82.31;101374.47;5038251;28;20057;-82
2023/05/05 02:11:51;;;;;;;17.23;14.07;;;;;;;15.31;81.68;101380.91;5040330;28;20013;-83
2023/05/05 02:14:18;;;;;;;16.25;14.55;;;;;;;15.27;82.00;101384.88;5043418;28;20064;-83
2023/05/05 02:16:44;;;;;;;21.10;14.48;;;;;;;15.25;82.01;101383.28;5033340;28;20080;-83
2023/05/05 02:19:11;;;;;;;19.33;14.82;;;;;;;15.19;82.46;101387.38;5030135;28;20037;-83
2023/05/05 02:21:37;;;;;;;16.40;14.00;;;;;;;15.16;81.46;101392.97;5037410;28;20395;-83
2023/05/05 02:24:03;;;;;;;18.00;14.45;;;;;;;15.10;82.43;101391.66;5036555;28;20064;-83
2023/05/05 02:26:32;;;;;;;16.92;14.95;;;;;;;14.97;82.60;101389.22;5037318;28;20022;-83
2023/05/05 02:29:02;;;;;;;;;;;;;;;15.16;78.38;101404.50;5031233;28;20464;-83
2023/05/05 02:31:29;;;;;;;16.00;14.30;;;;;;;14.95;82.41;101399.22;5042917;28;19909;-83
2023/05/05 02:33:58;;;;;;;20.20;14.55;;;;;;;14.72;81.79;101381.59;5036963;28;20078;-83
2023/05/05 02:36:28;;;;;;;20.17;15.50;;;;;;;14.76;83.02;101407.13;5038816;28;20481;-83
2023/05/05 02:39:01;;;;;;;20.60;15.10;;;;;;;14.75;83.03;101410.75;5041848;28;20037;-83
2023/05/05 02:41:27;;;;;;;20.83;15.90;;;;;;;14.67;83.26;101410.56;5042082;28;20474;-83
2023/05/05 02:43:54;;;;;;;18.08;16.15;;;;;;;14.59;83.36;101421.94;5038431;28;20065;-83
2023/05/05 02:46:19;;;;;;;17.25;15.45;;;;;;;14.56;83.73;101424.81;5039169;28;20178;-83
2023/05/05 02:48:44;;;;;;;18.58;16.08;;;;;;;14.50;83.81;101423.50;5041657;28;20151;-83
2023/05/05 02:51:10;;;;;;;16.67;14.95;;;;;;;14.46;83.63;101423.91;5038574;28;20026;-83
2023/05/05 02:53:35;;;;;;;18.13;14.65;;;;;;;14.41;83.56;101419.78;5041467;28;20036;-83
2023/05/05 02:56:31;;;;;;;16.50;14.77;;;;;;;14.41;82.62;101421.63;5041860;28;20022;-83
2023/05/05 02:59:27;;;;;;;16.05;14.02;;;;;;;14.32;82.99;101417.03;5037852;28;20057;-83
2023/05/05 03:02:09;;;;;;;20.08;15.02;;;;;;;14.25;84.06;101422.91;5031121;28;20161;-83
2023/05/05 03:04:40;;;;;;;19.75;14.60;;;;;;;14.17;83.76;101414.69;5034349;28;20021;-83
2023/05/05 03:07:10;;;;;;;17.77;13.70;;;;;;;14.13;84.35;101415.03;5029242;28;20108;-83
2023/05/05 03:09:40;;;;;;;15.98;14.27;;;;;;;14.06;84.34;101404.84;5041221;28;20498;-83
2023/05/05 03:12:11;;;;;;;16.38;13.93;;;;;;;14.07;84.44;101421.72;5036812;28;20045;-83
2023/05/05 03:14:40;;;;;;;15.45;13.82;;;;;;;13.98;84.46;101409.16;5029520;28;20536;-83
2023/05/05 03:17:07;;;;;;;;;;;;;;;14.15;80.48;101421.94;5041826;28;20029;-82
2023/05/05 03:19:35;;;;;;;17.17;13.95;;;;;;;13.94;84.80;101424.56;5030709;28;19997;-82
2023/05/05 03:22:02;;;;;;;15.05;13.43;;;;;;;13.87;84.68;101412.69;5038412;28;20498;-83
2023/05/05 03:24:28;;;;;;;16.48;14.10;;;;;;;13.82;85.50;101428.22;5040510;28;20099;-82
2023/05/05 03:26:53;;;;;;;16.33;13.63;;;;;;;13.74;85.52;101433.34;5024223;28;20448;-82
2023/05/05 03:29:18;;;;;;;17.20;13.55;;;;;;;13.69;85.11;101425.72;5024125;28;20084;-82
2023/05/05 03:31:44;;;;;;;17.50;13.77;;;;;;;13.69;85.75;101425.72;5037220;28;20093;-83
2023/05/05 03:34:09;;;;;;;16.58;13.20;;;;;;;13.63;84.86;101437.72;5030099;28;20444;-83
2023/05/05 03:36:35;;;;;;;15.35;13.32;;;;;;;13.55;85.69;101431.31;5041544;28;20101;-82
2023/05/05 03:39:00;;;;;;;15.52;12.73;;;;;;;13.56;85.67;101423.19;5041340;28;20033;-83
2023/05/05 03:41:26;;;;;;;15.75;12.75;;;;;;;13.55;85.98;101431.31;5029412;28;20029;-83
2023/05/05 03:43:52;;;;;;;17.58;13.63;;;;;;;13.48;86.70;101436.28;5042012;28;20391;-83
2023/05/05 03:46:17;;;;;;;16.63;13.75;;;;;;;13.41;86.70;101438.59;5037006;28;20040;-83
2023/05/05 03:48:42;;;;;;;16.67;13.80;;;;;;;13.35;86.94;101446.22;5039455;28;20026;-82
2023/05/05 03:51:08;;;;;;;15.57;13.88;;;;;;;13.29;87.57;101434.19;5052569;28;20053;-82
2023/05/05 03:53:33;;;;;;;16.15;14.20;;;;;;;13.28;88.03;101437.81;5055568;28;20041;-82
2023/05/05 03:55:59;;;;;;;17.35;14.25;;;;;;;13.21;87.57;101441.97;5056360;28;20017;-83
2023/05/05 03:58:24;;;;;;;14.85;13.25;;;;;;;13.18;88.17;101450.19;5049780;28;20025;-83
2023/05/05 04:00:50;;;;;;;16.98;14.05;;;;;;;13.14;89.02;101455.75;5053678;28;20024;-82
2023/05/05 04:03:15;;;;;;;15.98;13.88;;;;;;;13.09;88.19;101455.28;5044387;28;20416;-83
2023/05/05 04:05:41;;;;;;;16.10;14.50;;;;;;;13.06;88.61;101452.84;5042669;28;20167;-82
2023/05/05 04:08:06;;;;;;;16.90;14.13;;;;;;;13.03;88.95;101454.91;5032779;28;20056;-83
2023/05/05 04:10:32;;;;;;;15.13;13.52;;;;;;;13.02;89.15;101459.34;5026207;28;20030;-83
2023/05/05 04:12:57;;;;;;;17.02;12.98;;;;;;;12.96;88.77;101451.84;5033177;28;20021;-83
2023/05/05 04:15:23;;;;;;;14.88;13.20;;;;;;;12.95;88.48;101450.16;5041606;28;20049;-83
2023/05/05 04:17:48;;;;;;;15.82;13.88;;;;;;;12.90;89.34;101455.00;5043245;28;20052;-84
2023/05/05 04:20:14;;;;;;;15.35;13.48;;;;;;;12.89;89.80;101458.59;5042934;28;20026;-83
2023/05/05 04:22:39;;;;;;;15.00;12.38;;;;;;;12.90;89.12;101461.16;5044760;28;20033;-83
2023/05/05 04:25:05;;;;;;;16.02;13.38;;;;;;;12.87;89.86;101460.53;5053234;28;20549;-83
2023/05/05 04:27:31;;;;;;;15.35;12.38;;;;;;;12.88;89.28;101462.25;5051482;28;20022;-84
2023/05/05 04:29:56;;;;;;;15.38;12.05;;;;;;;12.84;88.33;101464.31;5051519;28;20056;-84
2023/05/05 04:32:21;;;;;;;15.00;12.15;;;;;;;12.84;88.71;101472.31;5053279;28;20030;-83
2023/05/05 04:34:47;;;;;;;16.20;12.68;;;;;;;12.87;89.10;101468.53;5042028;28;20081;-83
2023/05/05 04:37:12;;;;;;;14.27;12.52;;;;;;;12.75;90.11;101457.84;5053000;28;20033;-83
2023/05/05 04:39:38;;;;;;;15.88;12.90;;;;;;;12.83;90.16;101467.09;5049405;28;20033;-83
2023/05/05 04:42:03;;;;;;;15.25;12.52;;;;;;;12.84;89.65;101464.31;5045479;28;20025;-83
2023/05/05 04:44:28;;;;;;;16.55;12.75;;;;;;;12.80;89.80;101467.31;5037251;28;20101;-83
2023/05/05 04:46:54;;;;;;;19.15;13.20;;;;;;;12.80;89.86;101472.66;5047343;28;20021;-83
2023/05/05 04:49:19;;;;;;;15.05;11.85;;;;;;;12.74;89.29;101458.84;5042849;28;20029;-84
2023/05/05 04:51:45;;;;;;;14.35;12.43;;;;;;;12.79;89.99;101469.16;5035354;28;20047;-83
2023/05/05 04:54:10;;;;;;;13.05;11.75;;;;;;;12.73;90.98;101465.13;5032681;28;20068;-83
2023/05/05 04:56:36;;;;;;;14.20;11.95;;;;;;;12.78;89.81;101465.63;5029349;28;20033;-83
2023/05/05 04:59:02;;;;;;;15.02;13.07;;;;;;;12.77;90.27;101463.06;5034654;28;20032;-83
2023/05/05 05:01:30;;;;;;;14.45;12.02;;;;;;;12.77;90.48;101461.28;5035395;28;20085;-83
2023/05/05 05:03:58;;;;;;;13.93;12.48;;;;;;;12.82;89.84;101460.91;5034834;28;20030;-83
2023/05/05 05:06:23;;;;;;;14.30;12.90;;;;;;;12.81;90.55;101453.88;5036438;28;20045;-83
2023/05/05 05:08:49;;;;;;;14.13;11.93;;;;;;;12.84;90.92;101458.97;5030216;28;20085;-84
2023/05/05 05:11:14;;;;;;;14.65;12.43;;;;;;;12.82;91.08;101449.38;5037034;28;20061;-83
2023/05/05 05:13:40;;;;;;;16.38;12.85;;;;;;;12.88;90.38;101447.09;5032104;28;20037;-83
2023/05/05 05:16:06;;;;;;;15.23;12.25;;;;;;;12.90;90.12;101447.00;5041044;28;20036;-83
2023/05/05 05:18:31;;;;;;;16.65;12.70;;;;;;;12.98;89.96;101452.56;5045280;28;20033;-83
2023/05/05 05:20:56;;;;;;;15.80;12.65;;;;;;;12.99;90.56;101454.28;5043071;28;20026;-83
2023/05/05 05:23:22;;;;;;;17.10;13.43;;;;;;;13.01;90.68;101447.00;5039882;28;20128;-83
2023/05/05 05:25:47;;;;;;;13.73;12.35;;;;;;;13.15;90.19;101453.94;5044221;28;20064;-83
2023/05/05 05:28:13;;;;;;;15.45;13.55;;;;;;;13.22;90.02;101448.97;5042404;28;20034;-83
2023/05/05 05:30:38;;;;;;;16.45;13.13;;;;;;;13.33;89.62;101449.00;5040965;28;20029;-82
2023/05/05 05:33:03;;;;;;;16.02;13.40;;;;;;;13.47;89.01;101450.59;5039468;28;20466;-83
2023/05/05 05:35:31;;;;;;;13.93;12.53;;;;;;;13.66;89.16;101466.84;5041172;28;20064;-83
2023/05/05 05:37:56;;;;;;;20.95;13.98;;;;;;;13.82;88.47;101469.16;5033516;28;20285;-83
2023/05/05 05:40:21;;;;;;;15.93;13.50;;;;;;;13.90;87.29;101460.50;5040338;28;20104;-83
2023/05/05 05:43:01;;;;;;;15.50;13.20;;;;;;;14.07;86.80;101473.34;5039767;28;20025;-84
2023/05/05 05:45:58;;;;;;;15.75;13.60;;;;;;;13.99;86.73;101465.09;5040599;28;20049;-83
2023/05/05 05:48:28;;;;;;;17.08;13.38;;;;;;;14.06;86.46;101470.78;5040894;28;20044;-83
2023/05/05 05:54:59;;;;;;;;;;;;;;;14.46;84.88;101523.66;5006321;28;20076;-83
2023/05/05 06:01:02;;;;;;;14.23;12.45;;;;;;;14.28;86.19;101498.44;5029983;28;20045;-83
2023/05/05 06:03:28;;;;;;;16.42;11.65;;;;;;;14.33;85.98;101506.91;5038831;28;21230;-83
2023/05/05 06:05:53;;;;;;;15.35;11.82;;;;;;;14.48;86.74;101529.69;5044030;28;20024;-83
2023/05/05 06:08:18;;;;;;;13.25;11.93;;;;;;;14.54;86.92;101544.41;5046579;28;20041;-83
2023/05/05 06:10:54;;;;;;;14.75;11.73;;;;;;;14.56;87.53;101548.63;5042697;28;20029;-83
2023/05/05 06:13:20;;;;;;;14.70;12.52;;;;;;;14.58;88.08;101544.00;5040291;28;20079;-84
2023/05/05 06:15:51;;;;;;;17.50;12.55;;;;;;;14.66;87.86;101545.25;5040442;28;20046;-83
2023/05/05 06:18:17;;;;;;;17.52;13.85;;;;;;;14.56;88.27;101518.38;5039572;28;20447;-83
2023/05/05 06:20:42;;;;;;;20.70;14.25;;;;;;;14.80;88.27;101553.81;5036284;28;20030;-83
2023/05/05 06:23:07;;;;;;;18.02;14.20;;;;;;;14.93;88.21;101550.94;5037021;28;20124;-83
2023/05/05 06:25:33;;;;;;;16.88;13.98;;;;;;;15.05;87.51;101546.38;5041109;28;20040;-82
2023/05/05 06:27:58;;;;;;;17.88;14.13;;;;;;;15.23;87.08;101553.84;5037005;28;20038;-84
2023/05/05 06:30:24;;;;;;;17.65;14.13;;;;;;;15.34;86.60;101538.56;5037041;28;20064;-83
2023/05/05 06:32:50;;;;;;;16.95;13.57;;;;;;;15.63;86.18;101547.75;5041197;28;20037;-83
2023/05/05 06:35:15;;;;;;;19.60;13.83;;;;;;;15.82;85.27;101539.84;5039051;28;20045;-83
2023/05/05 06:37:41;;;;;;;19.17;14.75;;;;;;;15.95;83.86;101539.56;5037172;28;20367;-84
2023/05/05 06:40:07;;;;;;;17.85;13.35;;;;;;;16.19;83.34;101530.38;5042794;28;20470;-82
2023/05/05 06:42:32;;;;;;;15.43;12.70;;;;;;;16.31;82.39;101533.78;5041773;28;20101;-82
2023/05/05 06:44:58;;;;;;;17.15;12.07;;;;;;;16.50;82.05;101538.31;5042454;28;20049;-83
2023/05/05 06:47:24;;;;;;;15.93;13.48;;;;;;;16.61;80.35;101540.88;5042491;28;20056;-84
2023/05/05 06:49:49;;;;;;;16.95;12.63;;;;;;;16.68;80.50;101543.81;5043710;28;20445;-83
2023/05/05 06:52:14;;;;;;;16.05;12.82;;;;;;;16.89;80.42;101546.41;5032970;28;20042;-83
2023/05/05 06:54:40;;;;;;;15.35;12.13;;;;;;;17.05;79.49;101543.97;5035485;28;20038;-83
2023/05/05 06:57:05;;;;;;;16.37;12.50;;;;;;;17.23;79.13;101541.41;5030642;28;20052;-83
2023/05/05 06:59:31;;;;;;;16.52;11.27;;;;;;;17.29;77.83;101540.00;5039993;28;20319;-84
2023/05/05 07:01:56;;;;;;;12.75;10.82;;;;;;;17.49;78.14;101549.69;5041391;28;20065;-84
2023/05/05 07:04:22;;;;;;;13.77;9.93;;;;;;;17.61;76.30;101549.53;5036075;28;20036;-84
2023/05/05 07:06:49;;;;;;;15.30;9.75;;;;;;;17.83;75.51;101551.84;5043350;28;20071;-83
2023/05/05 07:09:15;;;;;;;12.30;9.07;;;;;;;18.08;73.50;101560.25;5043975;28;20029;-83
2023/05/05 07:11:41;;;;;;;12.00;8.30;;;;;;;18.30;72.39;101567.06;5038495;28;20053;-82
2023/05/05 07:14:06;;;;;;;12.27;8.73;;;;;;;18.54;71.82;101558.41;5040363;28;20017;-83
2023/05/05 07:16:35;;;;;;;13.60;8.57;;;;;;;18.88;70.19;101565.81;5039818;28;20065;-83
2023/05/05 07:19:04;;;;;;;11.77;8.30;;;;;;;19.01;69.56;101558.19;5042614;28;20040;-82
2023/05/05 07:21:30;;;;;;;13.68;8.27;;;;;;;18.96;68.03;101546.22;5043723;28;20073;-82
2023/05/05 07:23:55;;;;;;;8.90;7.03;;;;;;;18.99;66.71;101559.38;5041866;28;20056;-82
2023/05/05 07:26:24;;;;;;;12.50;7.68;;;;;;;19.08;67.65;101571.06;5049380;28;20037;-83
2023/05/05 07:28:50;;;;;;;;;;;;;;;19.22;69.68;101568.66;5043340;28;20041;-83
2023/05/05 07:31:18;;;;;;;10.55;7.20;;;;;;;19.08;66.44;101557.59;5041547;28;20420;-83
2023/05/05 07:33:44;;;;;;;10.63;7.30;;;;;;;19.08;66.52;101560.28;5041831;28;20018;-84
2023/05/05 07:36:09;;;;;;;10.85;7.75;;;;;;;19.16;66.13;101560.34;5041315;28;20032;-84
2023/05/05 07:38:35;;;;;;;8.93;7.50;;;;;;;19.10;66.36;101556.44;5043255;28;20033;-82
2023/05/05 07:41:00;;;;;;;10.63;7.28;;;;;;;19.38;65.81;101559.84;5043737;28;20028;-84
2023/05/05 07:43:25;;;;;;;10.27;7.25;;;;;;;19.45;65.53;101545.72;5041977;28;20037;-82
2023/05/05 07:45:50;;;;;;;13.35;7.30;;;;;;;19.64;64.95;101544.69;5042812;28;20033;-82
2023/05/05 07:48:18;;;;;;;12.48;7.13;;;;;;;19.87;64.25;101545.00;5029251;28;20068;-82
2023/05/05 07:50:44;;;;;;;12.40;7.38;;;;;;;20.13;63.70;101537.69;5041483;28;20036;-82
2023/05/05 07:53:09;;;;;;;14.00;7.40;;;;;;;20.34;62.94;101534.50;5039437;28;20026;-82
2023/05/05 07:55:35;;;;;;;12.27;7.38;;;;;;;20.45;62.51;101540.59;5041531;28;20044;-82
2023/05/05 07:58:00;;;;;;;9.43;6.47;;;;;;;20.86;61.37;101528.03;5041589;28;20043;-82
2023/05/05 08:00:25;;;;;;;9.40;6.20;;;;;;;21.21;60.20;101541.34;5029228;28;20030;-82
2023/05/05 08:02:51;;;;;;;14.05;7.30;;;;;;;21.57;58.22;101541.00;5042649;28;20124;-82
2023/05/05 08:05:16;;;;;;;8.53;6.33;;;;;;;21.80;58.25;101543.78;5042199;28;20040;-82
2023/05/05 08:07:42;;;;;;;8.13;6.20;;;;;;;21.86;56.23;101540.38;5042567;28;20311;-81
2023/05/05 08:10:10;;;;;;;12.10;6.13;;;;;;;22.16;55.69;101543.28;5031950;28;20133;-82
2023/05/05 08:12:36;;;;;;;;;;;;;;;22.45;58.98;101542.66;5043682;28;20034;-82
2023/05/05 08:15:01;;;;;;;7.27;5.40;;;;;;;22.55;54.50;101542.41;5039825;28;19983;-81
2023/05/05 08:17:26;;;;;;;7.40;5.55;;;;;;;22.68;53.29;101549.94;5037562;28;20116;-82
2023/05/05 08:19:52;;;;;;;6.63;5.07;;;;;;;22.86;52.91;101552.34;5039191;28;20052;-83
2023/05/05 08:22:17;;;;;;;5.57;4.40;;;;;;;22.86;51.60;101549.63;5037307;28;20030;-84
2023/05/05 08:24:43;;;;;;;6.25;3.95;;;;;;;22.96;51.43;101546.66;5041216;28;20032;-83
2023/05/05 08:27:08;;;;;;;7.22;3.90;;;;;;;23.19;51.45;101547.50;5043403;28;20017;-84
2023/05/05 08:29:33;;;;;;;5.28;3.75;;;;;;;23.16;50.83;101547.88;5046165;28;20032;-83
2023/05/05 08:31:59;;;;;;;4.97;2.40;;;;;;;23.19;48.52;101547.50;5048867;28;20037;-83
2023/05/05 08:34:24;;;;;;;4.38;2.92;;;;;;;23.07;49.30;101557.94;5036654;28;20374;-83
2023/05/05 08:36:49;;;;;;;5.43;3.28;;;;;;;23.01;50.03;101549.69;5042006;28;20033;-82
2023/05/05 08:39:15;;;;;;;8.90;3.65;;;;;;;22.78;49.81;101547.81;5046056;28;20034;-83
2023/05/05 08:41:41;;;;;;;4.97;3.60;;;;;;;22.65;50.70;101555.69;5047051;28;20089;-82
2023/05/05 08:44:07;;;;;;;5.22;3.22;;;;;;;22.84;50.57;101551.69;5052770;28;20057;-81
2023/05/05 08:46:35;;;;;;;7.50;2.95;;;;;;;22.70;51.14;101546.03;5049459;28;20034;-81
2023/05/05 08:49:02;;;;;;;5.47;2.58;;;;;;;22.70;51.35;101551.44;5048362;28;20044;-81
2023/05/05 08:51:31;;;;;;;5.55;3.28;;;;;;;22.71;52.14;101560.41;5034737;28;20041;-82
2023/05/05 08:54:01;;;;;;;8.85;3.25;;;;;;;22.68;50.95;101545.38;5039115;28;20021;-82
2023/05/05 08:56:32;;;;;;;5.00;2.97;;;;;;;22.68;51.28;101539.09;5034003;28;20094;-82
2023/05/05 08:58:59;;;;;;;6.25;3.13;;;;;;;22.54;50.40;101556.97;5038873;28;20119;-82
2023/05/05 09:01:24;;;;;;;6.97;2.95;;;;;;;22.47;51.65;101551.44;5039596;28;20029;-84
2023/05/05 09:03:50;;;;;;;9.52;2.63;;;;;;;22.46;51.83;101544.31;5037457;28;20064;-82
2023/05/05 09:06:16;;;;;;;5.18;3.38;;;;;;;22.47;50.71;101547.88;5032472;28;20468;-82
2023/05/05 09:08:41;;;;;;;6.25;3.63;;;;;;;22.49;51.15;101548.53;5032128;28;20029;-81
2023/05/05 09:11:06;;;;;;;6.65;3.53;;;;;;;22.35;51.20;101551.00;5040070;28;20040;-81
2023/05/05 09:13:32;;;;;;;7.57;3.53;;;;;;;22.48;51.15;101558.53;5039977;28;20108;-82
2023/05/05 09:15:58;;;;;;;3.90;2.85;;;;;;;22.53;52.37;101564.25;5030539;28;20360;-81
2023/05/05 09:18:24;;;;;;;5.07;3.45;;;;;;;22.39;51.44;101562.31;5030876;28;20047;-80
2023/05/05 09:20:50;;;;;;;6.03;3.33;;;;;;;22.44;52.17;101559.06;5035193;28;20087;-81
2023/05/05 09:23:17;;;;;;;4.80;3.45;;;;;;;22.37;51.63;101558.94;5037991;28;20063;-80
2023/05/05 09:25:46;;;;;;;10.05;4.18;;;;;;;22.30;52.16;101560.66;5038021;28;20025;-80
2023/05/05 09:28:16;;;;;;;8.05;3.58;;;;;;;22.18;52.11;101560.16;5034266;28;20033;-81
2023/05/05 09:30:45;;;;;;;6.28;3.83;;;;;;;22.20;51.80;101555.44;5033448;28;20022;-80
2023/05/05 09:33:11;;;;;;;7.75;3.88;;;;;;;22.21;53.13;101559.81;5038071;28;20482;-81
2023/05/05 09:35:53;;;;;;;7.38;4.10;;;;;;;22.36;53.12;101573.47;5025198;28;20053;-81
2023/05/05 09:38:23;;;;;;;7.50;3.85;;;;;;;22.18;53.13;101574.56;5029462;28;20499;-81
2023/05/05 09:40:53;;;;;;;10.98;4.05;;;;;;;22.09;52.40;101563.94;5037992;28;20036;-80
2023/05/05 09:43:20;;;;;;;4.85;3.63;;;;;;;22.17;53.24;101553.09;5038217;28;20041;-80
2023/05/05 09:45:47;;;;;;;8.48;3.67;;;;;;;22.05;52.69;101562.59;5037727;28;20045;-81
2023/05/05 09:48:27;;;;;;;7.97;3.53;;;;;;;22.05;53.20;101560.75;5039068;28;20056;-81
2023/05/05 09:50:53;;;;;;;6.78;3.45;;;;;;;21.92;53.35;101564.03;5035067;28;20383;-82
2023/05/05 09:53:19;;;;;;;8.57;3.40;;;;;;;21.78;54.85;101564.72;5023470;28;20084;-82
2023/05/05 09:55:53;;;;;;;5.18;3.40;;;;;;;21.57;55.85;101559.91;5036960;28;20383;-81
2023/05/05 09:58:22;;;;;;;6.35;3.47;;;;;;;21.48;59.07;101560.94;5037064;28;20042;-81
2023/05/05 10:00:48;;;;;;;9.05;3.67;;;;;;;21.30;60.20;101563.78;5036344;28;20053;-80
2023/05/05 10:03:14;;;;;;;6.75;3.97;;;;;;;21.20;60.71;101558.56;5035005;28;20037;-80
2023/05/05 10:05:49;;;;;;;5.10;3.45;;;;;;;21.00;60.40;101561.63;5036589;28;20022;-80
2023/05/05 10:08:15;;;;;;;5.90;3.80;;;;;;;20.69;62.08;101564.97;5027538;28;20065;-81
2023/05/05 10:11:03;;;;;;;6.78;4.15;;;;;;;20.70;62.29;101561.28;5031854;28;20038;-82
2023/05/05 10:13:31;;;;;;;4.80;3.97;;;;;;;20.59;65.32;101571.53;5030604;28;20034;-82
2023/05/05 10:15:58;;;;;;;9.23;4.68;;;;;;;20.48;65.06;101565.44;5032362;28;20026;-82
2023/05/05 10:18:25;;;;;;;7.93;4.65;;;;;;;20.34;65.25;101564.19;5028128;28;20034;-82
2023/05/05 10:20:56;;;;;;;9.65;5.22;;;;;;;20.10;69.48;101546.09;5024886;28;20048;-82
2023/05/05 10:23:23;;;;;;;9.48;4.50;;;;;;;20.11;69.18;101561.25;5040397;28;20037;-82
2023/05/05 10:25:54;;;;;;;7.68;5.15;;;;;;;19.89;68.79;101565.38;5027811;28;20053;-82
2023/05/05 10:28:42;;;;;;;10.55;5.43;;;;;;;19.79;68.55;101561.97;5032725;28;20116;-82
2023/05/05 10:31:15;;;;;;;7.55;5.13;;;;;;;19.76;71.41;101564.97;5028644;28;20061;-82
2023/05/05 10:33:57;;;;;;;6.97;5.22;;;;;;;19.71;71.62;101568.09;5037792;28;20030;-82
2023/05/05 10:36:24;;;;;;;9.57;5.70;;;;;;;19.62;72.22;101579.00;5024965;28;20135;-82
2023/05/05 10:38:54;;;;;;;12.35;5.82;;;;;;;19.51;74.85;101585.50;5033606;28;20082;-82
2023/05/05 10:41:20;;;;;;;8.93;5.63;;;;;;;19.37;74.23;101585.09;5031802;28;20034;-82
2023/05/05 10:43:46;;;;;;;11.15;5.10;;;;;;;19.20;72.44;101592.19;5034969;28;20490;-82
2023/05/05 10:46:11;;;;;;;7.10;4.97;;;;;;;19.10;73.25;101593.28;5029075;28;20046;-83
2023/05/05 10:49:06;;;;;;;5.10;4.50;;;;;;;18.98;74.63;101592.66;5025290;28;20499;-82
2023/05/05 10:51:59;;;;;;;8.25;4.60;;;;;;;18.99;73.50;101591.69;5005100;28;20041;-82
2023/05/05 10:54:30;;;;;;;6.35;4.03;;;;;;;18.87;75.75;101591.06;5037004;28;20091;-81
2023/05/05 10:57:00;;;;;;;6.55;4.45;;;;;;;18.72;74.31;101574.59;5038434;28;20091;-82
2023/05/05 10:59:37;;;;;;;8.75;4.30;;;;;;;18.77;76.72;101588.41;5036328;28;20051;-82
2023/05/05 11:02:21;;;;;;;7.78;4.60;;;;;;;18.66;77.50;101597.53;5036715;28;20065;-82
2023/05/05 11:05:07;;;;;;;10.27;5.25;;;;;;;18.54;78.28;101592.56;5037108;28;20094;-82
2023/05/05 11:07:35;;;;;;;9.05;5.05;;;;;;;18.49;81.31;101604.59;5037400;28;20494;-82
2023/05/05 11:10:06;;;;;;;8.73;5.50;;;;;;;18.33;81.25;101603.56;5033067;28;20037;-82
2023/05/05 11:12:32;;;;;;;7.45;5.53;;;;;;;18.20;84.27;101591.34;5040077;28;20045;-82
2023/05/05 11:15:30;;;;;;;7.95;5.63;;;;;;;18.33;80.26;101612.47;5041115;28;20033;-82
2023/05/05 11:17:57;;;;;;;12.30;6.13;;;;;;;18.13;85.01;101606.34;5029625;28;20049;-83
2023/05/05 11:20:38;;;;;;;10.52;6.15;;;;;;;18.08;83.98;101608.63;5039731;28;20159;-83
2023/05/05 11:23:03;;;;;;;7.88;5.40;;;;;;;17.92;85.04;101607.44;5041171;28;20062;-83
2023/05/05 11:25:35;;;;;;;9.40;5.30;;;;;;;17.81;83.77;101606.75;5041014;28;20033;-83
2023/05/05 11:28:11;;;;;;;7.72;5.28;;;;;;;17.62;85.70;101603.13;5041752;28;20311;-81
2023/05/05 11:30:54;;;;;;;7.70;4.80;;;;;;;17.49;85.70;101613.31;5041405;28;20091;-82